sensor_id;sensor_type;location;lat;lon;timestamp;temperature;humidity
71098;SHT35;58754;47.622;-2.986;2023-04-16T00:02:11;17.07;56.02
71098;SHT35;58754;47.622;-2.986;2023-04-16T00:04:37;17.07;56.02
71098;SHT35;58754;47.622;-2.986;2023-04-16T00:07:03;17.07;56.03
71098;SHT35;58754;47.622;-2.986;2023-04-16T00:09:28;17.06;55.95
71098;SHT35;58754;47.622;-2.986;2023-04-16T00:11:54;17.04;55.99
71098;SHT35;58754;47.622;-2.986;2023-04-16T00:14:20;17.04;55.91
71098;SHT35;58754;47.622;-2.986;2023-04-16T00:16:46;17.06;55.94
71098;SHT35;58754;47.622;-2.986;2023-04-16T00:19:12;17.07;55.91
71098;SHT35;58754;47.622;-2.986;2023-04-16T00:21:38;17.04;55.93
71098;SHT35;58754;47.622;-2.986;2023-04-16T00:24:03;17.07;55.94
71098;SHT35;58754;47.622;-2.986;2023-04-16T00:26:29;17.06;55.96
71098;SHT35;58754;47.622;-2.986;2023-04-16T00:28:55;17.06;55.89
71098;SHT35;58754;47.622;-2.986;2023-04-16T00:31:28;17.04;55.91
71098;SHT35;58754;47.622;-2.986;2023-04-16T00:33:55;17.04;55.91
71098;SHT35;58754;47.622;-2.986;2023-04-16T00:36:25;17.03;55.89
71098;SHT35;58754;47.622;-2.986;2023-04-16T00:38:52;17.04;55.89
71098;SHT35;58754;47.622;-2.986;2023-04-16T00:41:18;17.02;55.91
71098;SHT35;58754;47.622;-2.986;2023-04-16T00:43:44;17.04;55.88
71098;SHT35;58754;47.622;-2.986;2023-04-16T00:46:10;17.03;55.86
71098;SHT35;58754;47.622;-2.986;2023-04-16T00:48:38;17.02;55.84
71098;SHT35;58754;47.622;-2.986;2023-04-16T00:51:05;17.02;55.87
71098;SHT35;58754;47.622;-2.986;2023-04-16T00:53:31;17.02;55.90
71098;SHT35;58754;47.622;-2.986;2023-04-16T00:55:58;17.02;55.86
71098;SHT35;58754;47.622;-2.986;2023-04-16T00:58:25;17.03;55.84
71098;SHT35;58754;47.622;-2.986;2023-04-16T01:00:51;17.04;55.83
71098;SHT35;58754;47.622;-2.986;2023-04-16T01:03:16;17.02;55.81
71098;SHT35;58754;47.622;-2.986;2023-04-16T01:05:44;17.02;55.88
71098;SHT35;58754;47.622;-2.986;2023-04-16T01:08:17;17.03;55.83
71098;SHT35;58754;47.622;-2.986;2023-04-16T01:10:44;16.99;55.82
71098;SHT35;58754;47.622;-2.986;2023-04-16T01:13:10;16.99;55.81
71098;SHT35;58754;47.622;-2.986;2023-04-16T01:15:36;17.00;55.83
71098;SHT35;58754;47.622;-2.986;2023-04-16T01:18:02;17.00;55.80
71098;SHT35;58754;47.622;-2.986;2023-04-16T01:20:28;17.02;55.79
71098;SHT35;58754;47.622;-2.986;2023-04-16T01:22:54;17.00;55.75
71098;SHT35;58754;47.622;-2.986;2023-04-16T01:25:19;17.00;55.74
71098;SHT35;58754;47.622;-2.986;2023-04-16T01:27:48;16.99;55.79
71098;SHT35;58754;47.622;-2.986;2023-04-16T01:30:14;17.00;55.74
71098;SHT35;58754;47.622;-2.986;2023-04-16T01:32:40;16.99;55.76
71098;SHT35;58754;47.622;-2.986;2023-04-16T01:35:06;17.00;55.74
71098;SHT35;58754;47.622;-2.986;2023-04-16T01:37:32;16.99;55.74
71098;SHT35;58754;47.622;-2.986;2023-04-16T01:39:57;16.99;55.71
71098;SHT35;58754;47.622;-2.986;2023-04-16T01:42:23;16.99;55.75
71098;SHT35;58754;47.622;-2.986;2023-04-16T01:44:49;16.96;55.74
71098;SHT35;58754;47.622;-2.986;2023-04-16T01:47:15;16.96;55.74
71098;SHT35;58754;47.622;-2.986;2023-04-16T01:49:42;16.99;55.74
71098;SHT35;58754;47.622;-2.986;2023-04-16T01:52:10;16.94;55.75
71098;SHT35;58754;47.622;-2.986;2023-04-16T01:54:35;16.97;55.72
71098;SHT35;58754;47.622;-2.986;2023-04-16T01:57:01;16.96;55.69
71098;SHT35;58754;47.622;-2.986;2023-04-16T01:59:27;16.97;55.68
71098;SHT35;58754;47.622;-2.986;2023-04-16T02:01:53;16.97;55.72
71098;SHT35;58754;47.622;-2.986;2023-04-16T02:04:18;16.96;55.71
71098;SHT35;58754;47.622;-2.986;2023-04-16T02:06:44;16.94;55.62
71098;SHT35;58754;47.622;-2.986;2023-04-16T02:09:10;16.94;55.67
71098;SHT35;58754;47.622;-2.986;2023-04-16T02:11:36;16.94;55.63
71098;SHT35;58754;47.622;-2.986;2023-04-16T02:14:01;16.94;55.70
71098;SHT35;58754;47.622;-2.986;2023-04-16T02:16:27;16.99;55.66
71098;SHT35;58754;47.622;-2.986;2023-04-16T02:18:53;16.94;55.61
71098;SHT35;58754;47.622;-2.986;2023-04-16T02:21:18;16.94;55.64
71098;SHT35;58754;47.622;-2.986;2023-04-16T02:23:44;16.94;55.66
71098;SHT35;58754;47.622;-2.986;2023-04-16T02:26:12;16.94;55.67
71098;SHT35;58754;47.622;-2.986;2023-04-16T02:28:38;16.93;55.65
71098;SHT35;58754;47.622;-2.986;2023-04-16T02:31:04;16.92;55.64
71098;SHT35;58754;47.622;-2.986;2023-04-16T02:33:29;16.93;55.61
71098;SHT35;58754;47.622;-2.986;2023-04-16T02:35:56;16.93;55.63
71098;SHT35;58754;47.622;-2.986;2023-04-16T02:38:22;16.93;55.61
71098;SHT35;58754;47.622;-2.986;2023-04-16T02:40:47;16.93;55.65
71098;SHT35;58754;47.622;-2.986;2023-04-16T02:43:13;16.93;55.58
71098;SHT35;58754;47.622;-2.986;2023-04-16T02:45:39;16.92;55.60
71098;SHT35;58754;47.622;-2.986;2023-04-16T02:48:05;16.94;55.60
71098;SHT35;58754;47.622;-2.986;2023-04-16T02:50:33;16.92;55.56
71098;SHT35;58754;47.622;-2.986;2023-04-16T02:52:58;16.90;55.57
71098;SHT35;58754;47.622;-2.986;2023-04-16T02:55:24;16.92;55.54
71098;SHT35;58754;47.622;-2.986;2023-04-16T02:57:50;16.89;55.54
71098;SHT35;58754;47.622;-2.986;2023-04-16T03:00:17;16.89;55.58
71098;SHT35;58754;47.622;-2.986;2023-04-16T03:02:43;16.90;55.54
71098;SHT35;58754;47.622;-2.986;2023-04-16T03:05:09;16.89;55.56
71098;SHT35;58754;47.622;-2.986;2023-04-16T03:07:36;16.90;55.54
71098;SHT35;58754;47.622;-2.986;2023-04-16T03:10:04;16.90;55.54
71098;SHT35;58754;47.622;-2.986;2023-04-16T03:12:30;16.87;55.56
71098;SHT35;58754;47.622;-2.986;2023-04-16T03:14:56;16.89;55.56
71098;SHT35;58754;47.622;-2.986;2023-04-16T03:17:22;16.87;55.57
71098;SHT35;58754;47.622;-2.986;2023-04-16T03:19:47;16.89;55.52
71098;SHT35;58754;47.622;-2.986;2023-04-16T03:22:15;16.89;55.48
71098;SHT35;58754;47.622;-2.986;2023-04-16T03:24:41;16.89;55.53
71098;SHT35;58754;47.622;-2.986;2023-04-16T03:27:06;16.87;55.51
71098;SHT35;58754;47.622;-2.986;2023-04-16T03:29:32;16.87;55.45
71098;SHT35;58754;47.622;-2.986;2023-04-16T03:31:58;16.87;55.54
71098;SHT35;58754;47.622;-2.986;2023-04-16T03:34:23;16.85;55.50
71098;SHT35;58754;47.622;-2.986;2023-04-16T03:36:49;16.89;55.49
71098;SHT35;58754;47.622;-2.986;2023-04-16T03:39:15;16.87;55.50
71098;SHT35;58754;47.622;-2.986;2023-04-16T03:41:41;16.87;55.52
71098;SHT35;58754;47.622;-2.986;2023-04-16T03:44:07;16.86;55.49
71098;SHT35;58754;47.622;-2.986;2023-04-16T03:46:33;16.83;55.46
71098;SHT35;58754;47.622;-2.986;2023-04-16T03:48:58;16.86;55.49
71098;SHT35;58754;47.622;-2.986;2023-04-16T03:51:24;16.83;55.50
71098;SHT35;58754;47.622;-2.986;2023-04-16T03:53:50;16.83;55.53
71098;SHT35;58754;47.622;-2.986;2023-04-16T03:56:16;16.85;55.52
71098;SHT35;58754;47.622;-2.986;2023-04-16T03:58:42;16.87;55.46
71098;SHT35;58754;47.622;-2.986;2023-04-16T04:01:08;16.86;55.52
71098;SHT35;58754;47.622;-2.986;2023-04-16T04:03:33;16.85;55.50
71098;SHT35;58754;47.622;-2.986;2023-04-16T04:05:59;16.83;55.48
71098;SHT35;58754;47.622;-2.986;2023-04-16T04:08:25;16.85;55.46
71098;SHT35;58754;47.622;-2.986;2023-04-16T04:10:51;16.83;55.45
71098;SHT35;58754;47.622;-2.986;2023-04-16T04:13:16;16.82;55.44
71098;SHT35;58754;47.622;-2.986;2023-04-16T04:15:43;16.83;55.43
71098;SHT35;58754;47.622;-2.986;2023-04-16T04:18:09;16.85;55.47
71098;SHT35;58754;47.622;-2.986;2023-04-16T04:20:38;16.83;55.43
71098;SHT35;58754;47.622;-2.986;2023-04-16T04:23:05;16.82;55.44
71098;SHT35;58754;47.622;-2.986;2023-04-16T04:25:31;16.82;55.44
71098;SHT35;58754;47.622;-2.986;2023-04-16T04:27:56;16.82;55.42
71098;SHT35;58754;47.622;-2.986;2023-04-16T04:30:22;16.83;55.40
71098;SHT35;58754;47.622;-2.986;2023-04-16T04:32:48;16.80;55.44
71098;SHT35;58754;47.622;-2.986;2023-04-16T04:35:13;16.79;55.38
71098;SHT35;58754;47.622;-2.986;2023-04-16T04:37:39;16.83;55.43
71098;SHT35;58754;47.622;-2.986;2023-04-16T04:40:06;16.79;55.40
71098;SHT35;58754;47.622;-2.986;2023-04-16T04:42:32;16.79;55.42
71098;SHT35;58754;47.622;-2.986;2023-04-16T04:44:57;16.80;55.38
71098;SHT35;58754;47.622;-2.986;2023-04-16T04:47:23;16.80;55.41
71098;SHT35;58754;47.622;-2.986;2023-04-16T04:49:49;16.83;55.36
71098;SHT35;58754;47.622;-2.986;2023-04-16T04:52:14;16.77;55.37
71098;SHT35;58754;47.622;-2.986;2023-04-16T04:54:40;16.79;55.37
71098;SHT35;58754;47.622;-2.986;2023-04-16T04:57:06;16.76;55.39
71098;SHT35;58754;47.622;-2.986;2023-04-16T04:59:32;16.76;55.39
71098;SHT35;58754;47.622;-2.986;2023-04-16T05:01:58;16.77;55.39
71098;SHT35;58754;47.622;-2.986;2023-04-16T05:04:24;16.77;55.36
71098;SHT35;58754;47.622;-2.986;2023-04-16T05:06:50;16.77;55.36
71098;SHT35;58754;47.622;-2.986;2023-04-16T05:09:16;16.79;55.38
71098;SHT35;58754;47.622;-2.986;2023-04-16T05:11:42;16.79;55.35
71098;SHT35;58754;47.622;-2.986;2023-04-16T05:14:08;16.77;55.36
71098;SHT35;58754;47.622;-2.986;2023-04-16T05:16:35;16.77;55.31
71098;SHT35;58754;47.622;-2.986;2023-04-16T05:19:02;16.77;55.33
71098;SHT35;58754;47.622;-2.986;2023-04-16T05:21:28;16.75;55.34
71098;SHT35;58754;47.622;-2.986;2023-04-16T05:23:53;16.76;55.36
71098;SHT35;58754;47.622;-2.986;2023-04-16T05:26:19;16.75;55.30
71098;SHT35;58754;47.622;-2.986;2023-04-16T05:28:45;16.75;55.29
71098;SHT35;58754;47.622;-2.986;2023-04-16T05:31:11;16.75;55.31
71098;SHT35;58754;47.622;-2.986;2023-04-16T05:33:37;16.75;55.31
71098;SHT35;58754;47.622;-2.986;2023-04-16T05:36:02;16.75;55.29
71098;SHT35;58754;47.622;-2.986;2023-04-16T05:38:28;16.76;55.30
71098;SHT35;58754;47.622;-2.986;2023-04-16T05:40:54;16.75;55.25
71098;SHT35;58754;47.622;-2.986;2023-04-16T05:43:20;16.73;55.29
71098;SHT35;58754;47.622;-2.986;2023-04-16T05:45:46;16.75;55.28
71098;SHT35;58754;47.622;-2.986;2023-04-16T05:48:11;16.75;55.28
71098;SHT35;58754;47.622;-2.986;2023-04-16T05:50:38;16.73;55.25
71098;SHT35;58754;47.622;-2.986;2023-04-16T05:53:06;16.73;55.25
71098;SHT35;58754;47.622;-2.986;2023-04-16T05:55:32;16.72;55.25
71098;SHT35;58754;47.622;-2.986;2023-04-16T05:57:58;16.72;55.22
71098;SHT35;58754;47.622;-2.986;2023-04-16T06:00:24;16.73;55.25
71098;SHT35;58754;47.622;-2.986;2023-04-16T06:02:50;16.72;55.25
71098;SHT35;58754;47.622;-2.986;2023-04-16T06:05:15;16.72;55.25
71098;SHT35;58754;47.622;-2.986;2023-04-16T06:07:41;16.72;55.23
71098;SHT35;58754;47.622;-2.986;2023-04-16T06:10:07;16.71;55.25
71098;SHT35;58754;47.622;-2.986;2023-04-16T06:12:33;16.71;55.23
71098;SHT35;58754;47.622;-2.986;2023-04-16T06:14:59;16.69;55.27
71098;SHT35;58754;47.622;-2.986;2023-04-16T06:17:25;16.69;55.25
71098;SHT35;58754;47.622;-2.986;2023-04-16T06:19:51;16.69;55.23
71098;SHT35;58754;47.622;-2.986;2023-04-16T06:22:17;16.71;55.26
71098;SHT35;58754;47.622;-2.986;2023-04-16T06:24:43;16.71;55.20
71098;SHT35;58754;47.622;-2.986;2023-04-16T06:27:08;16.66;55.24
71098;SHT35;58754;47.622;-2.986;2023-04-16T06:29:34;16.69;55.23
71098;SHT35;58754;47.622;-2.986;2023-04-16T06:32:01;16.69;55.27
71098;SHT35;58754;47.622;-2.986;2023-04-16T06:34:27;16.71;55.20
71098;SHT35;58754;47.622;-2.986;2023-04-16T06:36:53;16.66;55.23
71098;SHT35;58754;47.622;-2.986;2023-04-16T06:39:19;16.69;55.28
71098;SHT35;58754;47.622;-2.986;2023-04-16T06:41:49;16.68;55.28
71098;SHT35;58754;47.622;-2.986;2023-04-16T06:44:15;16.69;55.22
71098;SHT35;58754;47.622;-2.986;2023-04-16T06:46:41;16.68;55.22
71098;SHT35;58754;47.622;-2.986;2023-04-16T06:49:06;16.69;55.28
71098;SHT35;58754;47.622;-2.986;2023-04-16T06:51:32;16.66;55.29
71098;SHT35;58754;47.622;-2.986;2023-04-16T06:53:58;16.66;55.24
71098;SHT35;58754;47.622;-2.986;2023-04-16T06:56:24;16.68;55.31
71098;SHT35;58754;47.622;-2.986;2023-04-16T06:58:50;16.66;55.29
71098;SHT35;58754;47.622;-2.986;2023-04-16T07:01:19;16.66;55.29
71098;SHT35;58754;47.622;-2.986;2023-04-16T07:03:45;16.65;55.31
71098;SHT35;58754;47.622;-2.986;2023-04-16T07:06:10;16.68;55.38
71098;SHT35;58754;47.622;-2.986;2023-04-16T07:08:36;16.66;55.37
71098;SHT35;58754;47.622;-2.986;2023-04-16T07:11:02;16.65;55.38
71098;SHT35;58754;47.622;-2.986;2023-04-16T07:13:27;16.65;55.41
71098;SHT35;58754;47.622;-2.986;2023-04-16T07:15:53;16.66;55.43
71098;SHT35;58754;47.622;-2.986;2023-04-16T07:18:19;16.64;55.40
71098;SHT35;58754;47.622;-2.986;2023-04-16T07:20:45;16.68;55.46
71098;SHT35;58754;47.622;-2.986;2023-04-16T07:23:11;16.65;55.47
71098;SHT35;58754;47.622;-2.986;2023-04-16T07:25:37;16.65;55.47
71098;SHT35;58754;47.622;-2.986;2023-04-16T07:28:03;16.66;55.51
71098;SHT35;58754;47.622;-2.986;2023-04-16T07:30:29;16.66;55.46
71098;SHT35;58754;47.622;-2.986;2023-04-16T07:32:59;16.65;55.50
71098;SHT35;58754;47.622;-2.986;2023-04-16T07:35:26;16.65;55.53
71098;SHT35;58754;47.622;-2.986;2023-04-16T07:37:51;16.65;55.55
71098;SHT35;58754;47.622;-2.986;2023-04-16T07:40:17;16.66;55.56
71098;SHT35;58754;47.622;-2.986;2023-04-16T07:42:43;16.66;55.56
71098;SHT35;58754;47.622;-2.986;2023-04-16T07:45:09;16.69;55.61
71098;SHT35;58754;47.622;-2.986;2023-04-16T07:47:34;16.66;55.59
71098;SHT35;58754;47.622;-2.986;2023-04-16T07:50:00;16.68;55.60
71098;SHT35;58754;47.622;-2.986;2023-04-16T07:52:26;16.68;55.64
71098;SHT35;58754;47.622;-2.986;2023-04-16T07:54:52;16.66;55.64
71098;SHT35;58754;47.622;-2.986;2023-04-16T07:57:18;16.66;55.66
71098;SHT35;58754;47.622;-2.986;2023-04-16T07:59:43;16.68;55.71
71098;SHT35;58754;47.622;-2.986;2023-04-16T08:02:12;16.65;55.69
71098;SHT35;58754;47.622;-2.986;2023-04-16T08:04:40;16.69;55.75
71098;SHT35;58754;47.622;-2.986;2023-04-16T08:07:06;16.66;55.76
71098;SHT35;58754;47.622;-2.986;2023-04-16T08:09:32;16.65;55.74
71098;SHT35;58754;47.622;-2.986;2023-04-16T08:11:59;16.65;55.77
71098;SHT35;58754;47.622;-2.986;2023-04-16T08:14:25;16.66;55.79
71098;SHT35;58754;47.622;-2.986;2023-04-16T08:16:51;16.66;55.79
71098;SHT35;58754;47.622;-2.986;2023-04-16T08:19:17;16.65;55.83
71098;SHT35;58754;47.622;-2.986;2023-04-16T08:21:43;16.66;55.84
71098;SHT35;58754;47.622;-2.986;2023-04-16T08:24:08;16.66;55.83
71098;SHT35;58754;47.622;-2.986;2023-04-16T08:26:34;16.65;55.89
71098;SHT35;58754;47.622;-2.986;2023-04-16T08:29:00;16.68;55.86
71098;SHT35;58754;47.622;-2.986;2023-04-16T08:31:26;16.65;55.88
71098;SHT35;58754;47.622;-2.986;2023-04-16T08:33:51;16.66;55.92
71098;SHT35;58754;47.622;-2.986;2023-04-16T08:36:17;16.68;55.90
71098;SHT35;58754;47.622;-2.986;2023-04-16T08:38:43;16.66;55.92
71098;SHT35;58754;47.622;-2.986;2023-04-16T08:41:11;16.68;55.92
71098;SHT35;58754;47.622;-2.986;2023-04-16T08:43:43;16.69;55.92
71098;SHT35;58754;47.622;-2.986;2023-04-16T08:46:10;16.68;55.90
71098;SHT35;58754;47.622;-2.986;2023-04-16T08:48:36;16.66;55.97
71098;SHT35;58754;47.622;-2.986;2023-04-16T08:51:02;16.66;55.97
71098;SHT35;58754;47.622;-2.986;2023-04-16T08:53:52;16.66;55.93
71098;SHT35;58754;47.622;-2.986;2023-04-16T08:56:22;16.66;55.99
71098;SHT35;58754;47.622;-2.986;2023-04-16T08:58:49;16.65;56.02
71098;SHT35;58754;47.622;-2.986;2023-04-16T09:01:17;16.66;56.06
71098;SHT35;58754;47.622;-2.986;2023-04-16T09:03:47;16.65;56.07
71098;SHT35;58754;47.622;-2.986;2023-04-16T09:06:14;16.68;56.06
71098;SHT35;58754;47.622;-2.986;2023-04-16T09:08:44;16.65;56.06
71098;SHT35;58754;47.622;-2.986;2023-04-16T09:11:16;16.65;56.11
71098;SHT35;58754;47.622;-2.986;2023-04-16T09:13:42;16.66;56.07
71098;SHT35;58754;47.622;-2.986;2023-04-16T09:16:09;16.66;56.12
71098;SHT35;58754;47.622;-2.986;2023-04-16T09:18:37;16.66;56.11
71098;SHT35;58754;47.622;-2.986;2023-04-16T09:21:02;16.66;56.13
71098;SHT35;58754;47.622;-2.986;2023-04-16T09:23:29;16.66;56.16
71098;SHT35;58754;47.622;-2.986;2023-04-16T09:25:58;16.66;56.13
71098;SHT35;58754;47.622;-2.986;2023-04-16T09:28:45;16.66;56.11
71098;SHT35;58754;47.622;-2.986;2023-04-16T09:31:16;16.66;56.16
71098;SHT35;58754;47.622;-2.986;2023-04-16T09:33:59;16.66;56.16
71098;SHT35;58754;47.622;-2.986;2023-04-16T09:36:25;16.66;56.16
71098;SHT35;58754;47.622;-2.986;2023-04-16T09:38:52;16.65;56.18
71098;SHT35;58754;47.622;-2.986;2023-04-16T09:41:24;16.65;56.20
71098;SHT35;58754;47.622;-2.986;2023-04-16T09:43:57;16.65;56.20
71098;SHT35;58754;47.622;-2.986;2023-04-16T09:46:24;16.64;56.22
71098;SHT35;58754;47.622;-2.986;2023-04-16T09:48:51;16.66;56.20
71098;SHT35;58754;47.622;-2.986;2023-04-16T09:51:17;16.65;56.24
71098;SHT35;58754;47.622;-2.986;2023-04-16T09:53:43;16.68;56.23
71098;SHT35;58754;47.622;-2.986;2023-04-16T09:56:11;16.68;56.26
71098;SHT35;58754;47.622;-2.986;2023-04-16T09:58:36;16.66;56.23
71098;SHT35;58754;47.622;-2.986;2023-04-16T10:01:09;16.68;56.21
71098;SHT35;58754;47.622;-2.986;2023-04-16T10:03:37;16.68;56.22
71098;SHT35;58754;47.622;-2.986;2023-04-16T10:06:16;16.66;56.23
71098;SHT35;58754;47.622;-2.986;2023-04-16T10:08:51;16.68;56.25
71098;SHT35;58754;47.622;-2.986;2023-04-16T10:11:18;16.65;56.26
71098;SHT35;58754;47.622;-2.986;2023-04-16T10:13:44;16.66;56.25
71098;SHT35;58754;47.622;-2.986;2023-04-16T10:16:10;16.66;56.26
71098;SHT35;58754;47.622;-2.986;2023-04-16T10:18:38;16.68;56.27
71098;SHT35;58754;47.622;-2.986;2023-04-16T10:21:05;16.68;56.27
71098;SHT35;58754;47.622;-2.986;2023-04-16T10:23:32;16.69;56.30
71098;SHT35;58754;47.622;-2.986;2023-04-16T10:25:59;16.68;56.30
71098;SHT35;58754;47.622;-2.986;2023-04-16T10:28:25;16.68;56.28
71098;SHT35;58754;47.622;-2.986;2023-04-16T10:30:55;16.69;56.30
71098;SHT35;58754;47.622;-2.986;2023-04-16T10:33:26;16.69;56.28
71098;SHT35;58754;47.622;-2.986;2023-04-16T10:36:06;16.68;56.29
71098;SHT35;58754;47.622;-2.986;2023-04-16T10:38:31;16.68;56.33
71098;SHT35;58754;47.622;-2.986;2023-04-16T10:41:07;16.69;56.37
71098;SHT35;58754;47.622;-2.986;2023-04-16T10:43:48;16.68;56.33
71098;SHT35;58754;47.622;-2.986;2023-04-16T10:46:22;16.68;56.34
71098;SHT35;58754;47.622;-2.986;2023-04-16T10:48:51;16.68;56.36
71098;SHT35;58754;47.622;-2.986;2023-04-16T10:51:32;16.66;56.38
71098;SHT35;58754;47.622;-2.986;2023-04-16T10:56:34;16.69;56.38
71098;SHT35;58754;47.622;-2.986;2023-04-16T10:59:00;16.68;56.33
71098;SHT35;58754;47.622;-2.986;2023-04-16T11:01:32;16.68;56.41
71098;SHT35;58754;47.622;-2.986;2023-04-16T11:09:56;16.71;56.39
71098;SHT35;58754;47.622;-2.986;2023-04-16T11:12:40;16.66;56.41
71098;SHT35;58754;47.622;-2.986;2023-04-16T11:17:42;16.69;56.43
71098;SHT35;58754;47.622;-2.986;2023-04-16T11:20:19;16.69;56.46
71098;SHT35;58754;47.622;-2.986;2023-04-16T11:22:45;16.66;56.45
71098;SHT35;58754;47.622;-2.986;2023-04-16T11:25:11;16.71;56.46
71098;SHT35;58754;47.622;-2.986;2023-04-16T11:27:37;16.68;56.47
71098;SHT35;58754;47.622;-2.986;2023-04-16T11:30:06;16.69;56.45
71098;SHT35;58754;47.622;-2.986;2023-04-16T11:32:36;16.71;56.50
71098;SHT35;58754;47.622;-2.986;2023-04-16T11:35:17;16.71;56.50
71098;SHT35;58754;47.622;-2.986;2023-04-16T11:37:44;16.71;56.47
71098;SHT35;58754;47.622;-2.986;2023-04-16T11:40:11;16.68;56.47
71098;SHT35;58754;47.622;-2.986;2023-04-16T11:42:38;16.69;56.48
71098;SHT35;58754;47.622;-2.986;2023-04-16T11:45:08;16.72;56.48
71098;SHT35;58754;47.622;-2.986;2023-04-16T11:47:47;16.71;56.47
71098;SHT35;58754;47.622;-2.986;2023-04-16T11:52:42;16.68;56.50
71098;SHT35;58754;47.622;-2.986;2023-04-16T11:55:08;16.69;56.51
71098;SHT35;58754;47.622;-2.986;2023-04-16T11:57:33;16.72;56.48
71098;SHT35;58754;47.622;-2.986;2023-04-16T11:59:59;16.72;56.49
71098;SHT35;58754;47.622;-2.986;2023-04-16T12:02:45;16.72;56.53
71098;SHT35;58754;47.622;-2.986;2023-04-16T12:08:10;16.75;56.51
71098;SHT35;58754;47.622;-2.986;2023-04-16T12:10:54;16.73;56.50
71098;SHT35;58754;47.622;-2.986;2023-04-16T12:13:21;16.75;56.50
71098;SHT35;58754;47.622;-2.986;2023-04-16T12:15:48;16.72;56.48
71098;SHT35;58754;47.622;-2.986;2023-04-16T12:18:16;16.75;56.51
71098;SHT35;58754;47.622;-2.986;2023-04-16T12:20:42;16.75;56.50
71098;SHT35;58754;47.622;-2.986;2023-04-16T12:23:10;16.75;56.52
71098;SHT35;58754;47.622;-2.986;2023-04-16T12:25:35;16.73;56.52
71098;SHT35;58754;47.622;-2.986;2023-04-16T12:28:01;16.75;56.50
71098;SHT35;58754;47.622;-2.986;2023-04-16T12:30:28;16.73;56.53
71098;SHT35;58754;47.622;-2.986;2023-04-16T12:33:15;16.76;56.52
71098;SHT35;58754;47.622;-2.986;2023-04-16T12:35:41;16.72;56.53
71098;SHT35;58754;47.622;-2.986;2023-04-16T12:38:08;16.73;56.53
71098;SHT35;58754;47.622;-2.986;2023-04-16T12:40:35;16.75;56.53
71098;SHT35;58754;47.622;-2.986;2023-04-16T12:43:01;16.75;56.55
71098;SHT35;58754;47.622;-2.986;2023-04-16T12:45:27;16.73;56.54
71098;SHT35;58754;47.622;-2.986;2023-04-16T12:47:53;16.76;56.53
71098;SHT35;58754;47.622;-2.986;2023-04-16T12:50:20;16.76;56.55
71098;SHT35;58754;47.622;-2.986;2023-04-16T12:52:46;16.77;56.53
71098;SHT35;58754;47.622;-2.986;2023-04-16T12:55:12;16.77;56.55
71098;SHT35;58754;47.622;-2.986;2023-04-16T12:57:38;16.77;56.53
71098;SHT35;58754;47.622;-2.986;2023-04-16T13:00:05;16.76;56.51
71098;SHT35;58754;47.622;-2.986;2023-04-16T13:02:32;16.76;56.50
71098;SHT35;58754;47.622;-2.986;2023-04-16T13:04:58;16.76;56.52
71098;SHT35;58754;47.622;-2.986;2023-04-16T13:07:24;16.76;56.56
71098;SHT35;58754;47.622;-2.986;2023-04-16T13:09:51;16.79;56.53
71098;SHT35;58754;47.622;-2.986;2023-04-16T13:12:17;16.77;56.53
71098;SHT35;58754;47.622;-2.986;2023-04-16T13:14:42;16.77;56.55
71098;SHT35;58754;47.622;-2.986;2023-04-16T13:17:08;16.77;56.52
71098;SHT35;58754;47.622;-2.986;2023-04-16T13:19:34;16.80;56.52
71098;SHT35;58754;47.622;-2.986;2023-04-16T13:22:00;16.75;56.56
71098;SHT35;58754;47.622;-2.986;2023-04-16T13:24:26;16.76;56.52
71098;SHT35;58754;47.622;-2.986;2023-04-16T13:26:52;16.80;56.50
71098;SHT35;58754;47.622;-2.986;2023-04-16T13:29:19;16.79;56.57
71098;SHT35;58754;47.622;-2.986;2023-04-16T13:31:45;16.76;56.55
71098;SHT35;58754;47.622;-2.986;2023-04-16T13:34:11;16.80;56.53
71098;SHT35;58754;47.622;-2.986;2023-04-16T13:36:37;16.79;56.55
71098;SHT35;58754;47.622;-2.986;2023-04-16T13:39:03;16.80;56.55
71098;SHT35;58754;47.622;-2.986;2023-04-16T13:41:30;16.82;56.53
71098;SHT35;58754;47.622;-2.986;2023-04-16T13:43:56;16.80;56.51
71098;SHT35;58754;47.622;-2.986;2023-04-16T13:46:22;16.83;56.50
71098;SHT35;58754;47.622;-2.986;2023-04-16T13:48:47;16.82;56.53
71098;SHT35;58754;47.622;-2.986;2023-04-16T13:51:13;16.82;56.54
71098;SHT35;58754;47.622;-2.986;2023-04-16T13:53:40;16.82;56.53
71098;SHT35;58754;47.622;-2.986;2023-04-16T13:56:06;16.85;56.49
71098;SHT35;58754;47.622;-2.986;2023-04-16T13:58:32;16.83;56.54
71098;SHT35;58754;47.622;-2.986;2023-04-16T14:00:58;16.83;56.52
71098;SHT35;58754;47.622;-2.986;2023-04-16T14:03:24;16.83;56.51
71098;SHT35;58754;47.622;-2.986;2023-04-16T14:05:51;16.83;56.53
71098;SHT35;58754;47.622;-2.986;2023-04-16T14:08:18;16.85;56.52
71098;SHT35;58754;47.622;-2.986;2023-04-16T14:10:46;16.86;56.51
71098;SHT35;58754;47.622;-2.986;2023-04-16T14:13:12;16.85;56.51
71098;SHT35;58754;47.622;-2.986;2023-04-16T14:15:38;16.85;56.48
71098;SHT35;58754;47.622;-2.986;2023-04-16T14:18:03;16.86;56.45
71098;SHT35;58754;47.622;-2.986;2023-04-16T14:20:29;16.86;56.46
71098;SHT35;58754;47.622;-2.986;2023-04-16T14:22:55;16.87;56.49
71098;SHT35;58754;47.622;-2.986;2023-04-16T14:25:23;16.87;56.49
71098;SHT35;58754;47.622;-2.986;2023-04-16T14:27:49;16.85;56.46
71098;SHT35;58754;47.622;-2.986;2023-04-16T14:30:15;16.87;56.46
71098;SHT35;58754;47.622;-2.986;2023-04-16T14:32:41;16.86;56.46
71098;SHT35;58754;47.622;-2.986;2023-04-16T14:35:07;16.89;56.47
71098;SHT35;58754;47.622;-2.986;2023-04-16T14:37:33;16.89;56.48
71098;SHT35;58754;47.622;-2.986;2023-04-16T14:40:03;16.89;56.44
71098;SHT35;58754;47.622;-2.986;2023-04-16T14:42:33;16.86;56.43
71098;SHT35;58754;47.622;-2.986;2023-04-16T14:45:01;16.89;56.44
71098;SHT35;58754;47.622;-2.986;2023-04-16T14:47:27;16.87;56.41
71098;SHT35;58754;47.622;-2.986;2023-04-16T14:49:53;16.92;56.41
71098;SHT35;58754;47.622;-2.986;2023-04-16T14:52:18;16.89;56.44
71098;SHT35;58754;47.622;-2.986;2023-04-16T14:54:44;16.89;56.41
71098;SHT35;58754;47.622;-2.986;2023-04-16T14:57:12;16.90;56.36
71098;SHT35;58754;47.622;-2.986;2023-04-16T14:59:38;16.89;56.40
71098;SHT35;58754;47.622;-2.986;2023-04-16T15:02:04;16.92;56.37
71098;SHT35;58754;47.622;-2.986;2023-04-16T15:04:31;16.92;56.36
71098;SHT35;58754;47.622;-2.986;2023-04-16T15:06:57;16.90;56.34
71098;SHT35;58754;47.622;-2.986;2023-04-16T15:09:24;16.90;56.37
71098;SHT35;58754;47.622;-2.986;2023-04-16T15:11:51;16.90;56.37
71098;SHT35;58754;47.622;-2.986;2023-04-16T15:14:17;16.92;56.37
71098;SHT35;58754;47.622;-2.986;2023-04-16T15:16:44;16.92;56.32
71098;SHT35;58754;47.622;-2.986;2023-04-16T15:19:11;16.92;56.32
71098;SHT35;58754;47.622;-2.986;2023-04-16T15:21:36;16.92;56.32
71098;SHT35;58754;47.622;-2.986;2023-04-16T15:24:02;16.92;56.31
71098;SHT35;58754;47.622;-2.986;2023-04-16T15:26:29;16.92;56.31
71098;SHT35;58754;47.622;-2.986;2023-04-16T15:28:55;16.93;56.31
71098;SHT35;58754;47.622;-2.986;2023-04-16T15:31:20;16.94;56.26